Time;durP1;ratioP1;P1;durP2;ratioP2;P2;SDS_P1;SDS_P2;PMS_P1;PMS_P2;Temp;Humidity;BMP_temperature;BMP_pressure;BME280_temperature;BME280_humidity;BME280_pressure;Samples;Min_cycle;Max_cycle;Signal;HPM_P1;HPM_P2
2022/08/24 00:01:23;;;;;;;18.73;10.30;;;;;;;22.88;53.26;100681.00;5033998;28;20040;-47
2022/08/24 00:03:49;;;;;;;23.40;11.57;;;;;;;22.84;53.66;100686.63;5049967;28;20051;-49
2022/08/24 00:06:19;;;;;;;20.00;11.02;;;;;;;22.80;53.66;100683.34;5034681;28;20037;-49
2022/08/24 00:08:47;;;;;;;19.10;10.57;;;;;;;22.76;53.72;100690.69;5033397;28;20046;-49
2022/08/24 00:11:13;;;;;;;18.42;11.23;;;;;;;22.69;54.00;100675.25;5033645;28;20049;-48
2022/08/24 00:13:39;;;;;;;17.08;11.10;;;;;;;22.70;54.07;100685.75;5033201;28;20569;-47
2022/08/24 00:16:06;;;;;;;19.27;10.30;;;;;;;22.68;54.28;100689.44;5040701;28;20127;-48
2022/08/24 00:18:32;;;;;;;21.17;11.77;;;;;;;22.37;54.22;100638.53;5047810;28;20555;-48
2022/08/24 00:20:59;;;;;;;21.25;10.85;;;;;;;22.59;54.52;100690.09;5032199;28;20041;-48
2022/08/24 00:23:25;;;;;;;21.00;11.88;;;;;;;22.56;54.80;100685.00;5007470;28;20462;-47
2022/08/24 00:25:50;;;;;;;22.75;12.38;;;;;;;22.52;55.06;100694.09;5030975;28;20033;-51
2022/08/24 00:28:16;;;;;;;18.40;11.82;;;;;;;22.49;55.31;100694.31;5030356;28;20053;-48
2022/08/24 00:30:43;;;;;;;19.55;12.00;;;;;;;22.46;55.42;100690.06;5020286;28;20433;-46
2022/08/24 00:33:08;;;;;;;20.42;11.65;;;;;;;22.44;55.62;100699.94;5031668;28;20045;-48
2022/08/24 00:35:35;;;;;;;26.50;11.65;;;;;;;22.43;55.79;100700.88;5033120;28;20131;-47
2022/08/24 00:38:01;;;;;;;20.45;12.50;;;;;;;22.40;55.82;100693.13;5015685;28;20086;-46
2022/08/24 00:40:32;;;;;;;18.85;11.88;;;;;;;22.37;56.10;100696.84;5032655;28;20580;-47
2022/08/24 00:43:02;;;;;;;16.90;11.02;;;;;;;22.35;56.26;100698.72;5032092;28;20052;-50
2022/08/24 00:45:28;;;;;;;21.50;11.10;;;;;;;22.33;56.38;100707.75;5031523;28;20128;-47
2022/08/24 00:47:58;;;;;;;19.08;11.30;;;;;;;22.30;56.13;100706.13;5033266;28;20041;-48
2022/08/24 00:50:32;;;;;;;22.30;10.82;;;;;;;22.26;56.14;100704.66;5048489;28;20068;-47
2022/08/24 00:53:01;;;;;;;19.05;11.13;;;;;;;22.25;56.11;100707.41;5013983;28;20433;-49
2022/08/24 00:55:36;;;;;;;18.52;10.93;;;;;;;22.22;56.51;100704.97;5031865;28;20132;-50
2022/08/24 00:58:07;;;;;;;16.45;11.38;;;;;;;22.19;56.52;100706.00;5047956;28;20526;-52
2022/08/24 01:00:38;;;;;;;18.65;11.38;;;;;;;22.17;56.69;100707.91;5032951;28;20045;-49
2022/08/24 01:03:05;;;;;;;18.73;11.45;;;;;;;22.14;56.74;100705.44;5031594;28;20489;-46
2022/08/24 01:05:34;;;;;;;20.90;11.32;;;;;;;22.12;56.66;100706.53;5031221;28;20125;-48
2022/08/24 01:08:00;;;;;;;17.00;11.05;;;;;;;22.10;56.77;100711.91;5014784;28;20052;-48
2022/08/24 01:10:28;;;;;;;17.85;10.73;;;;;;;22.06;57.07;100710.41;5031218;28;20069;-49
2022/08/24 01:12:57;;;;;;;16.70;11.10;;;;;;;22.04;57.20;100703.50;5029400;28;20433;-49
2022/08/24 01:15:23;;;;;;;18.60;11.48;;;;;;;22.00;57.38;100710.81;5031117;28;20041;-47
2022/08/24 01:20:34;;;;;;;17.73;10.98;;;;;;;21.96;57.75;100704.88;5012831;28;20069;-51
2022/08/24 01:23:27;;;;;;;16.85;11.05;;;;;;;21.94;58.13;100701.47;5030906;28;20049;-48
2022/08/24 01:25:53;;;;;;;22.23;11.75;;;;;;;21.91;58.08;100701.66;5016854;28;20120;-52
2022/08/24 01:28:20;;;;;;;20.63;10.93;;;;;;;21.62;58.27;100656.81;5030588;28;20088;-50
2022/08/24 01:30:46;;;;;;;20.20;11.45;;;;;;;21.62;58.20;100655.00;5030935;28;20044;-50
2022/08/24 01:33:22;;;;;;;18.10;11.52;;;;;;;21.86;58.52;100705.53;5031996;28;20045;-54
2022/08/24 01:35:48;;;;;;;19.42;10.93;;;;;;;21.84;58.45;100702.97;5033958;28;20127;-51
2022/08/24 01:38:15;;;;;;;20.15;11.55;;;;;;;21.81;58.56;100705.00;5042839;28;20258;-47
2022/08/24 01:40:49;;;;;;;23.60;11.98;;;;;;;21.79;58.61;100705.09;5032073;28;20132;-48
2022/08/24 01:43:16;;;;;;;19.15;12.10;;;;;;;21.76;58.57;100701.78;5013966;28;20581;-48
2022/08/24 01:45:43;;;;;;;26.65;12.40;;;;;;;21.72;58.71;100710.88;5032169;28;20429;-51
2022/08/24 01:48:09;;;;;;;16.52;11.90;;;;;;;21.71;59.02;100714.47;5042216;28;20140;-47
2022/08/24 01:50:35;;;;;;;21.13;11.80;;;;;;;21.69;58.88;100714.56;5030413;28;20124;-46
2022/08/24 01:53:03;;;;;;;27.75;12.93;;;;;;;21.69;59.26;100705.78;5031643;28;20069;-46
2022/08/24 01:55:29;;;;;;;23.30;13.10;;;;;;;21.68;59.11;100709.34;5030579;28;20033;-51
2022/08/24 01:57:55;;;;;;;24.55;14.25;;;;;;;21.68;59.27;100706.72;5038216;28;20308;-47
2022/08/24 02:00:21;;;;;;;23.85;14.50;;;;;;;21.67;59.23;100707.69;5030634;28;20087;-47
2022/08/24 02:02:49;;;;;;;25.60;14.85;;;;;;;21.66;59.36;100708.63;5028643;28;20041;-49
2022/08/24 02:05:16;;;;;;;27.25;14.05;;;;;;;21.64;59.80;100711.34;5031277;28;20087;-49
2022/08/24 02:07:44;;;;;;;28.10;14.48;;;;;;;21.65;59.78;100714.88;5044670;28;20037;-47
2022/08/24 02:10:13;;;;;;;27.08;14.07;;;;;;;21.64;59.93;100713.16;5046864;28;20535;-47
2022/08/24 02:12:41;;;;;;;27.17;15.00;;;;;;;21.62;59.94;100720.34;5046542;28;20045;-51
2022/08/24 02:15:30;;;;;;;26.35;15.35;;;;;;;21.61;59.83;100721.31;5003180;28;20518;-48
2022/08/24 02:17:58;;;;;;;24.85;15.20;;;;;;;21.60;59.87;100715.16;5017828;28;20050;-47
2022/08/24 02:20:25;;;;;;;25.95;15.15;;;;;;;21.58;59.90;100719.69;5013576;28;20917;-50
2022/08/24 02:22:52;;;;;;;26.48;16.20;;;;;;;21.58;59.67;100722.34;5031214;28;20556;-51
2022/08/24 02:25:18;;;;;;;26.90;15.85;;;;;;;21.57;59.67;100723.28;5029942;28;20041;-48
2022/08/24 02:27:44;;;;;;;23.63;14.77;;;;;;;21.56;59.71;100727.72;5041709;28;20057;-47
2022/08/24 02:30:10;;;;;;;26.27;15.43;;;;;;;21.55;59.65;100733.97;5044519;28;20111;-53
2022/08/24 02:32:38;;;;;;;30.30;17.08;;;;;;;21.54;59.95;100726.13;5013270;28;20045;-49
2022/08/24 02:35:05;;;;;;;28.02;15.15;;;;;;;21.35;59.92;100699.13;5029981;28;20563;-50
2022/08/24 02:37:30;;;;;;;32.42;15.98;;;;;;;21.52;59.78;100728.88;5032714;28;20402;-49
2022/08/24 02:39:56;;;;;;;26.00;15.57;;;;;;;21.53;59.67;100719.13;5029686;28;20179;-48
2022/08/24 02:42:24;;;;;;;28.63;16.13;;;;;;;21.51;59.86;100731.63;5029443;28;20136;-47
2022/08/24 02:44:50;;;;;;;31.42;15.65;;;;;;;21.52;60.05;100728.88;5030876;28;20502;-50
2022/08/24 02:47:16;;;;;;;33.17;16.63;;;;;;;21.51;59.82;100724.50;5032422;28;20037;-46
2022/08/24 02:49:42;;;;;;;31.15;16.10;;;;;;;21.53;59.96;100725.28;5045919;28;20041;-47
2022/08/24 02:52:08;;;;;;;27.35;15.75;;;;;;;21.53;60.03;100733.22;5028219;28;20053;-51
2022/08/24 02:54:36;;;;;;;26.83;16.13;;;;;;;21.55;59.98;100730.47;5028614;28;20045;-49
2022/08/24 02:57:01;;;;;;;28.67;17.15;;;;;;;21.56;60.18;100732.19;5040717;28;20167;-48
2022/08/24 02:59:27;;;;;;;36.45;16.00;;;;;;;21.55;60.27;100728.69;5065893;28;20084;-47
2022/08/24 03:01:53;;;;;;;29.45;16.88;;;;;;;21.57;60.22;100731.22;5047865;28;20052;-46
2022/08/24 03:04:21;;;;;;;29.50;16.42;;;;;;;21.51;60.24;100721.03;4996759;28;20041;-48
2022/08/24 03:06:47;;;;;;;30.30;15.95;;;;;;;21.60;60.12;100733.69;5030346;28;20406;-52
2022/08/24 03:09:13;;;;;;;24.95;15.85;;;;;;;21.63;60.15;100733.47;5045504;28;20041;-48
2022/08/24 03:11:39;;;;;;;28.30;15.88;;;;;;;21.64;60.19;100735.19;5029830;28;20118;-46
2022/08/24 03:14:06;;;;;;;30.17;16.48;;;;;;;21.66;60.15;100735.94;5030006;28;20049;-47
2022/08/24 03:16:33;;;;;;;31.30;15.95;;;;;;;21.67;60.05;100739.44;5028739;28;20049;-49
2022/08/24 03:19:00;;;;;;;29.60;16.17;;;;;;;21.68;60.07;100746.41;5028860;28;20518;-48
2022/08/24 03:21:27;;;;;;;27.02;15.88;;;;;;;21.68;60.19;100744.63;5028677;28;20045;-47
2022/08/24 03:23:54;;;;;;;34.35;17.13;;;;;;;21.69;60.43;100748.97;5029789;28;20045;-47
2022/08/24 03:26:21;;;;;;;26.25;16.73;;;;;;;21.71;60.37;100751.53;5028098;28;20099;-50
2022/08/24 03:28:48;;;;;;;27.40;16.33;;;;;;;21.71;60.34;100749.75;5029225;28;20045;-49
2022/08/24 03:31:14;;;;;;;31.17;17.08;;;;;;;21.74;60.39;100746.03;5028287;28;20126;-47
2022/08/24 03:33:40;;;;;;;31.70;16.08;;;;;;;21.76;60.15;100749.44;5029022;28;20061;-46
2022/08/24 03:36:06;;;;;;;29.55;17.20;;;;;;;21.77;60.10;100749.31;5028699;28;20052;-50
2022/08/24 03:38:32;;;;;;;31.83;17.25;;;;;;;21.81;59.71;100752.66;5028521;28;20051;-47
2022/08/24 03:40:57;;;;;;;34.75;17.27;;;;;;;21.84;59.82;100747.16;5033062;28;20037;-48
2022/08/24 03:46:08;;;;;;;40.58;17.75;;;;;;;21.89;59.49;100755.63;5038744;28;20071;-50
2022/08/24 03:48:38;;;;;;;27.95;16.67;;;;;;;21.93;59.19;100758.00;5047101;28;20501;-51
2022/08/24 03:51:06;;;;;;;28.08;16.73;;;;;;;21.96;59.20;100759.63;5043346;28;20045;-48
2022/08/24 03:53:32;;;;;;;32.67;17.52;;;;;;;22.02;58.97;100759.25;5028529;28;20041;-48
2022/08/24 03:55:59;;;;;;;34.90;17.80;;;;;;;22.08;58.79;100764.16;5048247;28;20052;-48
2022/08/24 03:58:26;;;;;;;37.55;17.88;;;;;;;22.13;58.63;100758.56;5048587;28;20037;-48
2022/08/24 04:00:53;;;;;;;34.03;17.88;;;;;;;22.18;58.15;100757.31;5043718;28;20057;-48
2022/08/24 04:03:19;;;;;;;39.00;18.25;;;;;;;22.24;58.05;100758.72;5028862;28;20041;-49
2022/08/24 04:05:45;;;;;;;27.45;17.35;;;;;;;22.30;57.87;100763.59;5045260;28;20042;-47
2022/08/24 04:08:11;;;;;;;37.70;19.85;;;;;;;22.33;57.30;100756.31;5028542;28;20052;-49
2022/08/24 04:10:37;;;;;;;38.55;19.77;;;;;;;22.21;56.95;100730.59;5028370;28;20045;-51
2022/08/24 04:13:03;;;;;;;36.42;19.33;;;;;;;22.29;57.04;100736.25;5011291;28;20060;-48
2022/08/24 04:15:30;;;;;;;41.47;20.42;;;;;;;22.51;56.95;100761.31;5028403;28;20049;-48
2022/08/24 04:17:57;;;;;;;39.30;18.97;;;;;;;22.42;56.38;100738.94;5063570;28;20127;-47
2022/08/24 04:20:24;;;;;;;30.27;17.80;;;;;;;22.54;56.47;100746.06;5047789;28;20040;-51
2022/08/24 04:22:51;;;;;;;37.25;19.40;;;;;;;22.69;56.57;100763.59;5044452;28;20046;-50
2022/08/24 04:25:16;;;;;;;33.55;18.10;;;;;;;22.74;56.48;100768.63;5028429;28;20095;-49
2022/08/24 04:27:43;;;;;;;33.80;17.48;;;;;;;22.62;56.39;100741.09;5045053;28;20056;-49
2022/08/24 04:30:09;;;;;;;36.40;17.63;;;;;;;22.85;56.49;100771.41;5046774;28;20058;-49
2022/08/24 04:32:54;;;;;;;29.40;18.98;;;;;;;22.89;56.48;100767.56;5026119;28;20040;-49
2022/08/24 04:35:20;;;;;;;33.40;19.13;;;;;;;22.96;56.56;100773.31;5028431;28;20041;-48
2022/08/24 04:37:46;;;;;;;39.63;19.38;;;;;;;23.02;56.35;100770.25;5045223;28;20040;-47
2022/08/24 04:40:13;;;;;;;32.85;18.80;;;;;;;23.09;56.22;100777.66;5037468;28;20433;-50
2022/08/24 04:42:45;;;;;;;35.95;19.63;;;;;;;23.16;56.08;100775.44;5008648;28;20141;-50
2022/08/24 04:45:10;;;;;;;36.83;20.30;;;;;;;23.10;55.86;100751.97;5008890;28;20128;-50
2022/08/24 04:47:36;;;;;;;34.80;18.60;;;;;;;23.31;55.76;100776.19;5034423;28;20037;-49
2022/08/24 04:50:03;;;;;;;30.65;18.85;;;;;;;23.26;55.75;100754.44;5028138;28;20524;-47
2022/08/24 04:52:29;;;;;;;34.78;19.83;;;;;;;23.41;55.42;100767.47;5030738;28;20090;-47
2022/08/24 04:54:55;;;;;;;35.55;19.63;;;;;;;23.56;54.84;100773.53;5048132;28;20079;-48
2022/08/24 04:57:24;;;;;;;34.47;18.63;;;;;;;23.66;54.45;100771.91;5040000;28;20056;-51
2022/08/24 04:59:55;;;;;;;33.35;18.63;;;;;;;23.77;54.31;100771.16;5044352;28;20049;-53
2022/08/24 05:02:23;;;;;;;33.60;18.83;;;;;;;23.88;53.80;100766.75;5031788;28;20516;-48
2022/08/24 05:04:54;;;;;;;30.77;17.95;;;;;;;23.99;53.76;100769.50;5031926;28;20045;-49
2022/08/24 05:07:20;;;;;;;32.15;17.38;;;;;;;24.09;53.52;100764.34;5031743;28;20045;-53
2022/08/24 05:09:47;;;;;;;32.30;18.67;;;;;;;24.19;53.19;100768.06;5047836;28;20540;-47
2022/08/24 05:12:14;;;;;;;33.97;18.33;;;;;;;24.22;52.79;100751.91;5031422;28;20052;-51
2022/08/24 05:14:51;;;;;;;35.03;18.17;;;;;;;24.40;52.87;100763.81;5031616;28;20079;-53
2022/08/24 05:17:18;;;;;;;32.45;17.75;;;;;;;24.54;52.17;100769.94;5059902;28;20041;-51
2022/08/24 05:19:44;;;;;;;37.03;18.25;;;;;;;24.67;52.00;100774.19;5031697;28;20050;-52
2022/08/24 05:22:10;;;;;;;29.10;18.02;;;;;;;24.79;51.83;100772.41;5029649;28;20235;-50
2022/08/24 05:24:41;;;;;;;32.75;17.42;;;;;;;24.94;51.10;100767.78;5031320;28;20094;-48
2022/08/24 05:27:08;;;;;;;31.52;17.20;;;;;;;24.98;50.71;100750.59;5036759;28;20083;-48
2022/08/24 05:29:33;;;;;;;32.10;17.92;;;;;;;25.20;50.41;100770.09;5030923;28;20424;-48
2022/08/24 05:32:00;;;;;;;27.30;17.17;;;;;;;25.33;50.56;100764.69;5031011;28;20064;-50
2022/08/24 05:34:26;;;;;;;47.20;22.05;;;;;;;25.33;50.26;100744.22;5014330;28;20425;-49
2022/08/24 05:36:52;;;;;;;31.33;17.73;;;;;;;25.63;49.86;100766.75;5039077;28;20186;-47
2022/08/24 05:39:44;;;;;;;40.17;17.65;;;;;;;25.59;49.86;100738.69;5033625;28;20060;-47
2022/08/24 05:42:10;;;;;;;31.42;17.15;;;;;;;25.87;49.04;100764.78;5013844;28;20046;-49
2022/08/24 05:44:42;;;;;;;33.30;16.95;;;;;;;25.99;48.54;100761.13;5030508;28;20120;-48
2022/08/24 05:47:09;;;;;;;32.90;16.95;;;;;;;26.15;48.20;100758.91;5032161;28;20144;-48
2022/08/24 05:49:34;;;;;;;34.28;17.73;;;;;;;26.28;47.96;100761.41;5030121;28;20045;-50
2022/08/24 05:52:01;;;;;;;36.85;20.10;;;;;;;26.28;47.58;100739.25;5030648;28;20457;-50
2022/08/24 05:54:26;;;;;;;32.03;16.70;;;;;;;26.52;47.17;100763.88;5046631;28;20509;-50
2022/08/24 05:57:03;;;;;;;31.23;15.48;;;;;;;26.64;46.90;100770.03;5036536;28;20420;-51
2022/08/24 05:59:31;;;;;;;36.95;16.85;;;;;;;26.75;45.70;100768.13;5030252;28;20044;-49
2022/08/24 06:02:00;;;;;;;32.97;14.32;;;;;;;26.94;45.95;100767.44;5037373;28;20045;-51
2022/08/24 06:04:27;;;;;;;31.10;14.85;;;;;;;27.13;44.58;100772.06;5033015;28;20041;-48
2022/08/24 06:06:53;;;;;;;28.38;12.82;;;;;;;27.23;43.01;100764.94;5031741;28;20053;-50
2022/08/24 06:09:20;;;;;;;22.20;12.07;;;;;;;27.40;41.76;100767.84;5013310;28;20041;-48
2022/08/24 06:11:47;;;;;;;25.83;10.63;;;;;;;27.64;41.10;100766.69;5028417;28;20436;-52
2022/08/24 06:14:16;;;;;;;20.10;10.40;;;;;;;28.07;39.30;100775.25;5013363;28;20287;-48
2022/08/24 06:16:54;;;;;;;30.83;11.27;;;;;;;28.97;38.01;100772.34;5016789;28;20049;-53
2022/08/24 06:19:21;;;;;;;18.27;9.10;;;;;;;29.87;36.49;100770.75;5039146;28;20148;-51
2022/08/24 06:21:50;;;;;;;20.70;10.45;;;;;;;30.68;34.55;100768.91;5029786;28;20428;-47
2022/08/24 06:24:17;;;;;;;21.52;9.00;;;;;;;31.64;33.22;100769.72;5045582;28;20049;-48
2022/08/24 06:29:29;;;;;;;20.77;9.13;;;;;;;32.60;30.38;100773.66;5030252;28;19917;-49
2022/08/24 06:32:02;;;;;;;15.05;9.50;;;;;;;33.57;29.79;100770.81;5025504;28;20040;-49
2022/08/24 06:34:29;;;;;;;22.42;10.32;;;;;;;34.48;28.53;100770.16;5031316;28;20060;-51
2022/08/24 06:36:55;;;;;;;18.98;8.10;;;;;;;35.07;26.86;100775.75;5065261;28;20129;-49
2022/08/24 06:39:24;;;;;;;16.40;7.60;;;;;;;34.93;24.94;100758.47;5038741;28;20048;-48
2022/08/24 06:41:51;;;;;;;12.93;7.25;;;;;;;35.09;24.76;100765.56;5028252;28;20045;-50
2022/08/24 06:44:28;;;;;;;16.17;6.93;;;;;;;35.89;23.87;100773.78;5029795;28;20045;-48
2022/08/24 06:47:02;;;;;;;18.98;7.88;;;;;;;36.45;22.58;100772.94;5031734;28;20041;-49
2022/08/24 06:49:28;;;;;;;15.18;7.72;;;;;;;37.09;22.20;100766.63;5029085;28;20048;-48
2022/08/24 06:51:54;;;;;;;14.88;9.00;;;;;;;37.98;21.74;100776.50;5030040;28;20036;-49
2022/08/24 06:54:19;;;;;;;14.68;8.32;;;;;;;39.16;20.59;100780.38;5012338;28;20068;-48
2022/08/24 06:56:46;;;;;;;14.07;7.50;;;;;;;39.94;19.60;100778.50;5029183;28;20505;-53
2022/08/24 06:59:12;;;;;;;10.95;8.07;;;;;;;40.83;19.03;100778.31;5028554;28;20051;-51
2022/08/24 07:01:38;;;;;;;13.18;7.65;;;;;;;41.56;18.45;100778.47;5028285;28;20037;-48
2022/08/24 07:04:04;;;;;;;22.17;9.15;;;;;;;40.79;18.03;100794.31;5030089;28;20060;-51
2022/08/24 07:06:49;;;;;;;9.32;7.30;;;;;;;40.21;17.98;100789.06;5028885;28;20094;-51
2022/08/24 07:09:15;;;;;;;13.25;8.57;;;;;;;39.63;18.53;100784.69;5029778;28;20041;-53
2022/08/24 07:11:42;;;;;;;11.93;7.93;;;;;;;39.59;18.91;100786.16;5028041;28;20107;-50
2022/08/24 07:14:08;;;;;;;12.65;7.60;;;;;;;39.97;18.23;100764.44;5044537;28;20080;-48
2022/08/24 07:16:35;;;;;;;10.85;6.93;;;;;;;40.96;17.45;100776.31;5027891;28;20472;-50
2022/08/24 07:19:03;;;;;;;19.52;7.20;;;;;;;41.29;17.56;100786.94;5027611;28;20072;-52
2022/08/24 07:21:29;;;;;;;;;;;;;;;41.18;17.22;100778.66;5028934;28;20145;-48
2022/08/24 07:23:57;;;;;;;11.07;7.18;;;;;;;41.22;17.19;100777.97;5026547;28;20009;-51
2022/08/24 07:26:25;;;;;;;11.48;6.90;;;;;;;41.99;16.73;100772.84;5059832;28;20037;-48
2022/08/24 07:28:59;;;;;;;9.07;5.60;;;;;;;42.67;15.53;100751.38;5011505;28;20038;-47
2022/08/24 07:31:27;;;;;;;15.10;6.30;;;;;;;43.70;15.33;100764.44;5028515;28;20413;-52
2022/08/24 07:34:07;;;;;;;11.43;5.65;;;;;;;43.63;14.56;100767.31;5043430;28;20056;-47
2022/08/24 07:36:35;;;;;;;12.05;4.90;;;;;;;42.83;15.00;100763.56;5030667;28;20061;-53
2022/08/24 07:39:01;;;;;;;;;;;;;;;41.69;15.38;100762.72;5012340;28;20041;-57
2022/08/24 07:41:27;;;;;;;5.37;4.07;;;;;;;40.94;15.60;100772.97;5038947;28;19928;-55
2022/08/24 07:43:54;;;;;;;11.48;5.05;;;;;;;40.68;16.11;100767.75;5027917;28;20044;-56
2022/08/24 07:46:20;;;;;;;14.38;4.35;;;;;;;40.90;15.95;100776.38;5027146;28;20038;-56
2022/08/24 07:48:46;;;;;;;7.68;4.22;;;;;;;41.49;15.31;100761.31;5027933;28;20092;-55
2022/08/24 07:51:14;;;;;;;9.60;4.80;;;;;;;41.65;15.71;100758.78;5040185;28;20040;-58
2022/08/24 07:53:42;;;;;;;8.85;4.70;;;;;;;42.36;14.80;100751.72;5028132;28;20038;-60
2022/08/24 07:56:09;;;;;;;7.37;4.93;;;;;;;43.40;14.29;100756.38;5028354;28;20144;-55
2022/08/24 07:58:36;;;;;;;11.52;4.90;;;;;;;43.95;13.89;100761.38;5026913;28;20056;-58
2022/08/24 08:01:03;;;;;;;9.82;4.90;;;;;;;44.50;13.56;100742.31;5026639;28;20041;-54
2022/08/24 08:03:32;;;;;;;8.25;4.65;;;;;;;44.84;13.41;100756.88;5029218;28;20049;-57
2022/08/24 08:06:18;;;;;;;10.95;5.38;;;;;;;45.79;12.91;100743.66;5038946;28;20123;-57
2022/08/24 08:08:52;;;;;;;5.80;4.03;;;;;;;45.73;12.18;100761.13;5009261;28;20045;-58
2022/08/24 08:11:19;;;;;;;8.95;4.13;;;;;;;45.01;12.82;100758.53;5012532;28;20044;-56
2022/08/24 08:13:45;;;;;;;16.10;5.32;;;;;;;44.28;12.97;100750.50;5010581;28;20053;-58
2022/08/24 08:16:11;;;;;;;10.30;4.33;;;;;;;42.64;13.96;100725.34;5024272;28;20041;-56
2022/08/24 08:18:37;;;;;;;7.53;3.95;;;;;;;42.91;13.84;100755.84;5027981;28;20369;-56
2022/08/24 08:24:13;;;;;;;5.50;4.25;;;;;;;42.38;14.26;100706.66;5019099;28;20060;-55
2022/08/24 08:26:39;;;;;;;7.70;4.53;;;;;;;43.79;13.39;100741.03;5027341;28;20107;-57
2022/08/24 08:29:19;;;;;;;8.75;4.65;;;;;;;43.28;13.23;100747.38;5030249;28;20042;-58
2022/08/24 08:31:45;;;;;;;;;;;;;;;43.56;13.53;100752.06;5063550;28;20052;-58
2022/08/24 08:34:11;;;;;;;6.07;4.00;;;;;;;42.22;13.92;100732.75;5015282;28;19916;-58
2022/08/24 08:36:39;;;;;;;5.18;3.80;;;;;;;41.71;13.63;100725.09;5034142;28;20048;-58
2022/08/24 08:39:11;;;;;;;5.30;2.92;;;;;;;41.00;13.70;100728.41;5035470;28;20127;-53
2022/08/24 08:41:50;;;;;;;5.38;3.47;;;;;;;41.00;13.69;100738.47;5013782;28;20069;-50
2022/08/24 08:44:52;;;;;;;9.30;4.00;;;;;;;41.19;14.47;100729.28;5048342;28;20534;-50
2022/08/24 08:47:29;;;;;;;6.22;3.60;;;;;;;42.76;13.66;100725.41;5014262;28;20029;-54
2022/08/24 08:50:24;;;;;;;7.53;4.60;;;;;;;43.67;13.21;100727.38;5044678;28;20045;-55
2022/08/24 08:53:44;;;;;;;6.00;4.73;;;;;;;45.12;12.47;100716.41;5021063;28;20072;-51
2022/08/24 08:56:28;;;;;;;10.23;4.53;;;;;;;45.89;11.85;100738.25;4973009;28;20057;-53
2022/08/24 08:59:06;;;;;;;9.45;4.22;;;;;;;45.32;12.12;100735.06;4988960;28;20080;-51
2022/08/24 09:02:14;;;;;;;6.05;4.38;;;;;;;44.84;12.42;100729.44;5011561;28;20057;-51
2022/08/24 09:05:01;;;;;;;7.03;4.22;;;;;;;43.59;12.67;100726.94;5018038;28;20483;-52
2022/08/24 09:08:16;;;;;;;7.68;4.00;;;;;;;43.61;12.71;100705.59;5014406;28;20048;-52
2022/08/24 09:11:00;;;;;;;9.93;4.75;;;;;;;45.39;11.93;100727.44;5020493;28;20053;-53
2022/08/24 09:13:37;;;;;;;8.13;4.32;;;;;;;44.57;12.42;100719.13;5023110;28;20084;-53
2022/08/24 09:16:17;;;;;;;5.57;3.90;;;;;;;45.05;12.26;100718.53;5027575;28;20052;-53
2022/08/24 09:19:13;;;;;;;7.03;4.47;;;;;;;46.68;11.44;100719.16;5028963;28;20117;-52
2022/08/24 09:21:52;;;;;;;11.82;4.22;;;;;;;47.51;10.60;100717.38;5024382;28;20049;-48
2022/08/24 09:24:27;;;;;;;5.70;4.10;;;;;;;46.45;10.94;100707.66;5030179;28;20038;-54
2022/08/24 09:27:27;;;;;;;7.38;4.30;;;;;;;45.50;11.25;100706.44;5014041;28;20065;-52
2022/08/24 09:30:10;;;;;;;9.68;3.85;;;;;;;45.66;11.06;100704.69;5018065;28;20044;-49
2022/08/24 09:32:59;;;;;;;6.90;3.20;;;;;;;43.67;12.04;100701.88;5029575;28;20041;-52
2022/08/24 09:35:37;;;;;;;9.23;3.80;;;;;;;44.31;11.96;100703.34;5030736;28;20033;-53
2022/08/24 09:38:22;;;;;;;7.82;3.40;;;;;;;44.75;11.64;100698.84;5028708;28;20037;-53
2022/08/24 09:41:23;;;;;;;15.35;5.47;;;;;;;46.16;11.51;100696.13;5029463;28;20505;-54
2022/08/24 09:44:26;;;;;;;9.02;4.20;;;;;;;47.66;10.58;100702.00;5014684;28;20060;-49
2022/08/24 09:46:52;;;;;;;8.05;4.20;;;;;;;46.18;10.26;100714.06;5019872;28;20041;-55
2022/08/24 09:49:46;;;;;;;7.70;3.45;;;;;;;44.20;11.11;100696.00;5024876;28;20409;-52
2022/08/24 09:52:30;;;;;;;5.78;3.03;;;;;;;43.79;11.40;100698.00;5030264;28;20033;-47
2022/08/24 09:55:11;;;;;;;4.55;3.03;;;;;;;44.06;11.17;100701.00;5023343;28;20052;-51
2022/08/24 09:58:00;;;;;;;6.95;3.10;;;;;;;44.02;11.28;100696.25;5013570;28;20516;-51
2022/08/24 10:00:33;;;;;;;8.20;3.17;;;;;;;44.69;10.98;100697.13;5019483;28;20049;-51
2022/08/24 10:03:01;;;;;;;5.25;3.25;;;;;;;44.13;11.03;100698.91;5019723;28;20037;-53
2022/08/24 10:05:46;;;;;;;3.65;2.90;;;;;;;43.57;11.48;100698.94;5027050;28;20412;-48
2022/08/24 10:08:27;;;;;;;6.32;3.05;;;;;;;43.63;11.65;100690.59;5028785;28;20463;-50
2022/08/24 10:11:27;;;;;;;4.47;3.17;;;;;;;44.83;11.11;100695.66;5029009;28;20045;-51
2022/08/24 10:14:32;;;;;;;7.28;3.28;;;;;;;45.09;11.10;100696.88;5029769;28;20045;-50
2022/08/24 10:17:03;;;;;;;4.75;3.20;;;;;;;44.27;11.25;100696.72;5045351;28;20099;-49
2022/08/24 10:19:54;;;;;;;4.40;3.17;;;;;;;44.70;10.87;100696.84;5028073;28;20057;-51
2022/08/24 10:22:37;;;;;;;4.60;3.20;;;;;;;44.29;11.30;100681.66;5030198;28;20111;-49
2022/08/24 10:25:18;;;;;;;3.72;3.30;;;;;;;44.89;11.27;100693.81;5030070;28;20458;-53
2022/08/24 10:27:47;;;;;;;8.80;4.10;;;;;;;45.63;10.88;100688.72;5015419;28;20088;-50
2022/08/24 10:30:37;;;;;;;8.13;5.15;;;;;;;47.37;10.07;100690.59;5019514;28;20429;-48
2022/08/24 10:33:18;;;;;;;8.45;3.70;;;;;;;46.01;10.02;100691.31;5031104;28;20458;-49
2022/08/24 10:35:47;;;;;;;4.57;3.20;;;;;;;45.52;10.54;100688.63;5025880;28;20041;-52
2022/08/24 10:41:53;;;;;;;5.30;3.38;;;;;;;45.93;10.51;100678.06;5018118;28;20052;-52
2022/08/24 10:44:43;;;;;;;3.97;3.30;;;;;;;45.58;10.52;100677.69;4998939;28;20046;-54
2022/08/24 10:47:27;;;;;;;10.77;8.55;;;;;;;47.40;9.85;100687.28;5030290;28;20045;-53
2022/08/24 10:50:15;;;;;;;5.60;3.38;;;;;;;46.81;9.73;100682.03;5025287;28;20065;-53
2022/08/24 10:52:58;;;;;;;7.53;3.10;;;;;;;45.47;10.42;100674.00;5011297;28;20038;-51
2022/08/24 10:55:28;;;;;;;4.35;3.30;;;;;;;46.01;9.80;100674.81;5042837;28;20059;-52
2022/08/24 10:58:39;;;;;;;5.32;3.10;;;;;;;45.16;10.34;100669.22;5029262;28;20508;-49
2022/08/24 11:01:33;;;;;;;3.15;2.90;;;;;;;45.86;10.08;100667.25;4997766;28;20119;-54
2022/08/24 11:04:04;;;;;;;4.05;2.90;;;;;;;46.00;9.58;100670.44;5026876;28;20426;-54
2022/08/24 11:07:09;;;;;;;5.03;3.25;;;;;;;46.70;9.73;100648.13;5028292;28;20059;-52
2022/08/24 11:09:55;;;;;;;5.77;3.17;;;;;;;46.88;9.53;100684.56;5026922;28;20775;-49
2022/08/24 11:12:40;;;;;;;3.53;3.20;;;;;;;45.90;10.19;100679.44;5014814;28;20057;-52
2022/08/24 11:15:18;;;;;;;5.78;3.53;;;;;;;44.41;10.89;100672.50;5019431;28;20115;-52
2022/08/24 11:17:55;;;;;;;5.32;3.10;;;;;;;45.19;10.69;100664.03;5028636;28;20045;-51
2022/08/24 11:20:26;;;;;;;5.03;3.00;;;;;;;45.91;10.16;100659.06;5029088;28;20047;-51
2022/08/24 11:23:20;;;;;;;6.32;3.40;;;;;;;47.17;10.05;100658.25;5028758;28;20041;-48
2022/08/24 11:26:01;;;;;;;5.80;3.83;;;;;;;48.58;8.80;100673.31;5023856;28;20044;-52
2022/08/24 11:28:38;;;;;;;6.93;3.63;;;;;;;46.65;9.73;100659.09;5029910;28;20045;-49
2022/08/24 11:31:04;;;;;;;9.25;3.15;;;;;;;45.71;10.04;100655.28;5010403;28;20069;-53
2022/08/24 11:33:33;;;;;;;5.70;3.25;;;;;;;45.60;10.25;100659.00;5008957;28;20038;-50
2022/08/24 11:36:00;;;;;;;5.55;3.25;;;;;;;44.71;10.67;100651.84;5025118;28;20102;-50
2022/08/24 11:38:29;;;;;;;;;;;;;;;45.68;10.39;100644.81;5028572;28;20616;-50
2022/08/24 11:41:01;;;;;;;6.15;3.45;;;;;;;47.26;9.43;100648.38;5028479;28;20410;-49
2022/08/24 11:44:00;;;;;;;8.88;3.40;;;;;;;46.70;9.31;100641.78;5013510;28;20425;-53
2022/08/24 11:46:45;;;;;;;6.82;3.00;;;;;;;45.75;9.76;100643.47;5025992;28;20077;-50
2022/08/24 11:49:26;;;;;;;5.28;2.75;;;;;;;44.28;10.49;100644.34;5028385;28;20065;-48
2022/08/24 11:52:32;;;;;;;4.68;2.63;;;;;;;43.41;10.84;100627.41;5026482;28;20041;-50
2022/08/24 11:55:11;;;;;;;12.20;3.17;;;;;;;43.59;11.19;100623.66;5008486;28;20045;-51